Time;durP1;ratioP1;P1;durP2;ratioP2;P2;SDS_P1;SDS_P2;PMS_P1;PMS_P2;Temp;Humidity;BMP_temperature;BMP_pressure;BME280_temperature;BME280_humidity;BME280_pressure;Samples;Min_cycle;Max_cycle;Signal;HPM_P1;HPM_P2
2024/04/19 00:00:53;;;;;;;1.75;0.90;;;16.00;57.10;;;;;;5418345;26;20233;-67
2024/04/19 00:03:18;;;;;;;1.40;0.95;;;16.00;57.10;;;;;;5418031;26;20224;-68
2024/04/19 00:05:44;;;;;;;0.80;0.80;;;16.00;57.10;;;;;;5418746;26;20216;-66
2024/04/19 00:08:10;;;;;;;2.05;1.33;;;16.00;57.10;;;;;;5419044;26;20259;-67
2024/04/19 00:10:35;;;;;;;1.60;0.90;;;16.00;57.10;;;;;;5418040;26;20737;-67
2024/04/19 00:13:01;;;;;;;1.45;1.10;;;16.00;57.10;;;;;;5418242;26;20254;-67
2024/04/19 00:15:27;;;;;;;1.08;0.77;;;15.90;57.10;;;;;;5419001;26;20220;-67
2024/04/19 00:17:53;;;;;;;0.93;0.80;;;15.90;57.10;;;;;;5417495;26;20749;-67
2024/04/19 00:20:18;;;;;;;1.80;1.00;;;15.90;57.10;;;;;;5418670;26;20220;-67
2024/04/19 00:22:44;;;;;;;2.00;1.10;;;15.90;57.10;;;;;;5418525;26;20225;-66
2024/04/19 00:25:09;;;;;;;3.58;1.05;;;15.90;57.10;;;;;;5417916;26;20255;-67
2024/04/19 00:27:34;;;;;;;1.05;0.88;;;15.90;57.10;;;;;;5418815;26;20259;-67
2024/04/19 00:30:00;;;;;;;1.15;1.00;;;15.90;57.10;;;;;;5418273;26;20603;-66
2024/04/19 00:32:25;;;;;;;1.10;0.80;;;15.90;57.20;;;;;;5417852;26;20738;-67
2024/04/19 00:34:51;;;;;;;1.20;0.80;;;15.90;57.10;;;;;;5418294;26;20321;-67
2024/04/19 00:37:16;;;;;;;1.20;1.02;;;15.90;57.10;;;;;;5418311;26;20317;-68
2024/04/19 00:39:42;;;;;;;1.02;0.90;;;15.90;57.10;;;;;;5417532;26;20232;-68
2024/04/19 00:42:08;;;;;;;1.05;0.93;;;15.90;57.40;;;;;;5418618;26;20223;-68
2024/04/19 00:44:33;;;;;;;1.35;0.90;;;15.90;57.70;;;;;;5417721;26;20316;-67
2024/04/19 00:46:59;;;;;;;1.33;0.90;;;15.80;57.20;;;;;;5418088;26;20329;-66
2024/04/19 00:49:24;;;;;;;1.00;0.70;;;15.90;57.30;;;;;;5418544;26;20232;-67
2024/04/19 00:51:50;;;;;;;0.95;0.95;;;15.90;57.30;;;;;;5417160;26;20271;-67
2024/04/19 00:54:15;;;;;;;1.63;1.15;;;15.80;57.20;;;;;;5418324;26;20258;-67
2024/04/19 00:56:42;;;;;;;0.85;0.73;;;15.90;57.20;;;;;;5386655;26;20258;-67
2024/04/19 00:59:07;;;;;;;1.52;1.10;;;15.90;57.30;;;;;;5417589;26;20695;-66
2024/04/19 01:01:33;;;;;;;1.88;1.10;;;15.90;57.30;;;;;;5387064;26;20255;-66
2024/04/19 01:03:58;;;;;;;2.17;1.17;;;15.90;57.40;;;;;;5386467;26;20313;-67
2024/04/19 01:06:24;;;;;;;1.17;1.00;;;15.80;57.20;;;;;;5417381;26;20855;-67
2024/04/19 01:08:50;;;;;;;0.77;0.77;;;15.80;57.30;;;;;;5417895;26;20229;-67
2024/04/19 01:11:15;;;;;;;1.05;0.85;;;15.80;57.30;;;;;;5418083;26;20260;-66
2024/04/19 01:13:42;;;;;;;1.70;0.93;;;15.80;57.30;;;;;;5416903;26;20263;-67
2024/04/19 01:16:08;;;;;;;0.80;0.80;;;15.80;57.30;;;;;;5387179;26;20232;-67
2024/04/19 01:18:33;;;;;;;0.98;0.82;;;15.80;57.30;;;;;;5417929;26;20279;-67
2024/04/19 01:20:59;;;;;;;1.20;1.00;;;15.70;57.30;;;;;;5416763;26;20221;-68
2024/04/19 01:23:24;;;;;;;1.35;0.93;;;15.70;57.30;;;;;;5417957;26;20217;-67
2024/04/19 01:25:50;;;;;;;1.63;0.80;;;15.70;57.30;;;;;;5386479;26;20729;-66
2024/04/19 01:28:15;;;;;;;1.83;1.00;;;15.70;57.30;;;;;;5385906;26;20271;-67
2024/04/19 01:30:45;;;;;;;1.88;1.13;;;15.80;57.40;;;;;;5417494;26;20354;-67
2024/04/19 01:33:11;;;;;;;0.93;0.82;;;15.80;57.30;;;;;;5418015;26;20220;-67
2024/04/19 01:35:37;;;;;;;1.00;1.00;;;15.80;57.50;;;;;;5416949;26;20260;-67
2024/04/19 01:38:02;;;;;;;1.05;0.80;;;15.70;57.40;;;;;;5417266;26;20259;-68
2024/04/19 01:40:28;;;;;;;1.30;0.90;;;15.70;57.40;;;;;;5417890;26;20254;-69
2024/04/19 01:42:54;;;;;;;1.13;0.85;;;15.70;57.50;;;;;;5416621;26;20560;-68
2024/04/19 01:45:19;;;;;;;0.93;0.80;;;15.70;57.40;;;;;;5417749;26;20220;-67
2024/04/19 01:47:45;;;;;;;1.20;0.90;;;15.70;57.50;;;;;;5416398;26;20329;-66
2024/04/19 01:50:11;;;;;;;0.90;0.88;;;15.70;57.50;;;;;;5417576;26;20220;-67
2024/04/19 01:52:36;;;;;;;0.90;0.80;;;15.70;57.50;;;;;;5417628;26;20626;-67
2024/04/19 01:55:02;;;;;;;2.55;0.93;;;15.70;57.50;;;;;;5416370;26;20759;-67
2024/04/19 01:57:28;;;;;;;0.90;0.90;;;15.70;57.50;;;;;;5417602;26;20225;-67
2024/04/19 01:59:53;;;;;;;1.00;1.00;;;15.60;57.50;;;;;;5417072;26;20597;-66
2024/04/19 02:02:19;;;;;;;0.80;0.70;;;15.70;57.60;;;;;;5416141;26;20675;-67
2024/04/19 02:04:47;;;;;;;1.65;1.10;;;15.70;57.60;;;;;;5417082;26;20561;-67
2024/04/19 02:07:13;;;;;;;1.33;0.85;;;15.70;57.50;;;;;;5417053;26;20317;-66
2024/04/19 02:09:39;;;;;;;1.42;0.80;;;15.70;57.60;;;;;;5416407;26;20224;-67
2024/04/19 02:12:04;;;;;;;1.15;0.80;;;15.70;57.60;;;;;;5417131;26;20255;-66
2024/04/19 02:14:30;;;;;;;1.05;0.90;;;15.70;57.60;;;;;;5417141;26;20224;-66
2024/04/19 02:16:57;;;;;;;1.20;0.98;;;15.70;57.60;;;;;;5414918;26;20232;-67
2024/04/19 02:19:23;;;;;;;0.90;0.90;;;15.70;57.60;;;;;;5417228;26;20687;-67
2024/04/19 02:21:48;;;;;;;0.95;0.70;;;15.60;57.60;;;;;;5416556;26;20259;-67
2024/04/19 02:24:14;;;;;;;1.10;1.00;;;15.60;57.60;;;;;;5416288;26;20560;-67
2024/04/19 02:26:40;;;;;;;1.15;0.80;;;15.60;57.60;;;;;;5416596;26;20224;-66
2024/04/19 02:31:50;;;;;;;1.05;0.95;;;15.60;57.60;;;;;;5415981;26;20694;-67
2024/04/19 02:34:15;;;;;;;1.27;0.70;;;15.60;57.60;;;;;;5416934;26;20264;-68
2024/04/19 02:36:41;;;;;;;1.30;0.90;;;15.60;57.60;;;;;;5416456;26;20323;-67
2024/04/19 02:39:06;;;;;;;1.27;1.00;;;15.60;57.70;;;;;;5415978;26;20276;-67
2024/04/19 02:41:32;;;;;;;0.82;0.82;;;15.60;57.70;;;;;;5416873;26;20323;-68
2024/04/19 02:43:57;;;;;;;0.80;0.80;;;15.60;57.70;;;;;;5415549;26;20220;-67
2024/04/19 02:46:23;;;;;;;0.90;0.80;;;15.60;57.70;;;;;;5416833;26;20258;-67
2024/04/19 02:48:49;;;;;;;1.13;0.90;;;15.60;57.80;;;;;;5416397;26;20255;-66
2024/04/19 02:51:16;;;;;;;1.42;0.95;;;15.60;57.70;;;;;;5415909;26;20221;-67
2024/04/19 02:53:42;;;;;;;1.48;0.95;;;15.60;57.80;;;;;;5416358;26;20321;-67
2024/04/19 02:56:08;;;;;;;1.02;0.70;;;15.60;57.70;;;;;;5416746;26;20252;-67
2024/04/19 02:58:33;;;;;;;0.65;0.55;;;15.60;57.80;;;;;;5415714;26;20260;-67
2024/04/19 03:00:59;;;;;;;1.75;0.80;;;15.60;57.80;;;;;;5416242;26;20260;-66
2024/04/19 03:03:24;;;;;;;0.80;0.80;;;15.60;57.80;;;;;;5416267;26;20265;-67
2024/04/19 03:05:53;;;;;;;1.13;0.98;;;15.60;57.80;;;;;;5415393;26;20606;-67
2024/04/19 03:08:19;;;;;;;1.05;0.90;;;15.50;57.80;;;;;;5416623;26;20221;-67
2024/04/19 03:10:45;;;;;;;1.88;0.90;;;15.50;57.80;;;;;;5416172;26;20220;-68
2024/04/19 03:13:10;;;;;;;0.88;0.88;;;15.60;58.00;;;;;;5415607;26;20224;-67
2024/04/19 03:15:37;;;;;;;0.68;0.68;;;15.60;58.00;;;;;;5416510;26;20224;-68
2024/04/19 03:18:03;;;;;;;0.70;0.70;;;15.60;57.90;;;;;;5416142;26;20248;-68
2024/04/19 03:20:29;;;;;;;0.75;0.75;;;15.60;57.90;;;;;;5415758;26;20217;-67
2024/04/19 03:22:55;;;;;;;1.33;0.80;;;15.60;58.00;;;;;;5415908;26;20325;-67
2024/04/19 03:25:20;;;;;;;1.20;0.70;;;15.60;58.00;;;;;;5416352;26;20232;-67
2024/04/19 03:27:46;;;;;;;0.60;0.60;;;15.60;58.00;;;;;;5413907;26;20224;-67
2024/04/19 03:30:11;;;;;;;0.88;0.73;;;15.60;58.00;;;;;;5415748;26;20302;-67
2024/04/19 03:32:37;;;;;;;0.60;0.60;;;15.50;57.90;;;;;;5384694;26;20224;-67
2024/04/19 03:35:03;;;;;;;0.82;0.80;;;15.50;57.90;;;;;;5414807;26;20263;-68
2024/04/19 03:37:28;;;;;;;0.73;0.70;;;15.50;58.00;;;;;;5416034;26;20259;-67
2024/04/19 03:39:54;;;;;;;0.70;0.68;;;15.50;58.00;;;;;;5415573;26;20220;-68
2024/04/19 03:42:20;;;;;;;0.70;0.70;;;15.50;58.00;;;;;;5415195;26;20615;-67
2024/04/19 03:47:32;;;;;;;0.98;0.75;;;15.50;58.00;;;;;;5415274;26;21138;-67
2024/04/19 03:49:58;;;;;;;0.80;0.80;;;15.50;57.90;;;;;;5415240;26;20216;-67
2024/04/19 03:52:24;;;;;;;3.03;0.80;;;15.50;58.10;;;;;;5416013;26;20612;-67
2024/04/19 03:54:49;;;;;;;0.70;0.70;;;15.50;58.00;;;;;;5414598;26;20691;-67
2024/04/19 03:57:15;;;;;;;1.27;0.75;;;15.50;58.00;;;;;;5415751;26;20220;-67
2024/04/19 03:59:40;;;;;;;0.75;0.65;;;15.50;58.10;;;;;;5415269;26;20217;-67
2024/04/19 04:02:06;;;;;;;0.70;0.70;;;15.50;58.20;;;;;;5414895;26;20216;-66
2024/04/19 04:04:31;;;;;;;1.95;1.13;;;15.50;58.20;;;;;;5415609;26;20220;-67
2024/04/19 04:06:58;;;;;;;1.38;1.00;;;15.50;58.20;;;;;;5415078;26;20259;-67
2024/04/19 04:09:24;;;;;;;1.33;0.60;;;15.50;58.20;;;;;;5383929;26;20321;-67
2024/04/19 04:11:49;;;;;;;1.58;1.02;;;15.50;58.20;;;;;;5415005;26;20220;-67
2024/04/19 04:14:15;;;;;;;0.80;0.80;;;15.50;58.10;;;;;;5415378;26;20718;-67
2024/04/19 04:16:40;;;;;;;0.60;0.60;;;15.50;58.20;;;;;;5417648;26;20220;-67
2024/04/19 04:19:07;;;;;;;0.68;0.68;;;15.50;58.20;;;;;;5415247;26;20220;-68
2024/04/19 04:21:33;;;;;;;0.70;0.68;;;15.40;58.20;;;;;;5415459;26;20592;-67
2024/04/19 04:23:58;;;;;;;1.55;0.70;;;15.50;58.30;;;;;;5413986;26;20643;-67
2024/04/19 04:26:24;;;;;;;0.73;0.60;;;15.50;58.30;;;;;;5415214;26;20220;-66
2024/04/19 04:28:49;;;;;;;0.60;0.60;;;15.40;58.20;;;;;;5414766;26;20232;-66
2024/04/19 04:31:15;;;;;;;0.98;0.55;;;15.40;58.30;;;;;;5414184;26;20228;-67
2024/04/19 04:33:40;;;;;;;0.65;0.60;;;15.40;58.30;;;;;;5414737;26;20259;-67
2024/04/19 04:36:06;;;;;;;0.68;0.68;;;15.40;58.20;;;;;;5414945;26;20325;-68
2024/04/19 04:38:31;;;;;;;1.65;0.70;;;15.40;58.20;;;;;;5414096;26;20825;-67
2024/04/19 04:40:57;;;;;;;1.10;1.00;;;15.40;58.30;;;;;;5417234;26;20298;-68
2024/04/19 04:43:22;;;;;;;0.60;0.60;;;15.40;58.90;;;;;;5418533;26;20259;-67
2024/04/19 04:45:48;;;;;;;0.70;0.70;;;15.40;58.30;;;;;;5417305;26;20263;-67
2024/04/19 04:48:16;;;;;;;1.02;0.77;;;15.40;58.40;;;;;;5418530;26;20263;-67
2024/04/19 04:50:42;;;;;;;1.42;0.77;;;15.40;58.40;;;;;;5417232;26;20228;-67
2024/04/19 04:53:07;;;;;;;0.65;0.60;;;15.40;58.30;;;;;;5418569;26;20794;-67
2024/04/19 04:55:33;;;;;;;0.60;0.60;;;15.40;58.40;;;;;;5418519;26;20321;-67
2024/04/19 04:57:59;;;;;;;1.10;1.00;;;15.40;58.30;;;;;;5417150;26;20216;-67
2024/04/19 05:00:28;;;;;;;1.80;0.95;;;15.40;58.40;;;;;;5418339;26;20232;-67
2024/04/19 05:02:56;;;;;;;1.55;0.98;;;15.40;58.60;;;;;;5417859;26;20232;-66
2024/04/19 05:05:21;;;;;;;0.65;0.55;;;15.40;58.60;;;;;;5417563;26;20251;-66
2024/04/19 05:07:47;;;;;;;0.70;0.70;;;15.40;58.50;;;;;;5417873;26;20605;-66
2024/04/19 05:10:12;;;;;;;0.60;0.60;;;15.40;58.50;;;;;;5418094;26;20268;-67
2024/04/19 05:12:38;;;;;;;0.40;0.40;;;15.40;59.10;;;;;;5417398;26;20217;-66
2024/04/19 05:15:04;;;;;;;0.80;0.80;;;15.40;58.50;;;;;;5417700;26;20228;-66
2024/04/19 05:17:29;;;;;;;1.23;0.70;;;15.40;58.50;;;;;;5417975;26;20288;-67
2024/04/19 05:19:55;;;;;;;1.00;0.63;;;15.30;58.40;;;;;;5416860;26;20678;-67
2024/04/19 05:22:21;;;;;;;1.30;1.00;;;15.30;58.40;;;;;;5418046;26;20317;-67
2024/04/19 05:24:46;;;;;;;1.27;0.73;;;15.40;58.50;;;;;;5417710;26;20232;-66
2024/04/19 05:27:12;;;;;;;0.70;0.70;;;15.40;58.50;;;;;;5417224;26;20225;-66
2024/04/19 05:29:37;;;;;;;0.50;0.50;;;15.30;58.50;;;;;;5417901;26;20786;-66
2024/04/19 05:32:03;;;;;;;0.50;0.50;;;15.40;59.20;;;;;;5417557;26;20267;-66
2024/04/19 05:34:28;;;;;;;0.60;0.60;;;15.30;58.70;;;;;;5417132;26;20289;-67
2024/04/19 05:36:54;;;;;;;1.60;0.70;;;15.40;58.60;;;;;;5417557;26;20220;-68
2024/04/19 05:39:19;;;;;;;0.70;0.60;;;15.40;58.60;;;;;;5417695;26;20566;-67
2024/04/19 05:41:45;;;;;;;0.70;0.68;;;15.40;58.60;;;;;;5416336;26;20260;-69
2024/04/19 05:44:10;;;;;;;0.50;0.50;;;15.50;58.60;;;;;;5417806;26;20324;-67
2024/04/19 05:46:36;;;;;;;0.50;0.50;;;15.60;58.70;;;;;;5417847;26;20696;-67
2024/04/19 05:49:01;;;;;;;0.50;0.50;;;15.70;58.80;;;;;;5416483;26;20263;-67
2024/04/19 05:51:27;;;;;;;0.93;0.45;;;15.80;58.60;;;;;;5416534;26;20217;-67
2024/04/19 05:53:53;;;;;;;0.73;0.63;;;15.90;58.40;;;;;;5416490;26;20221;-68
2024/04/19 05:56:18;;;;;;;0.40;0.40;;;16.10;58.30;;;;;;5417450;26;20220;-67
2024/04/19 05:58:44;;;;;;;0.75;0.75;;;16.20;58.00;;;;;;5417037;26;20695;-67
2024/04/19 06:01:09;;;;;;;0.43;0.43;;;16.40;57.80;;;;;;5416570;26;20246;-67
2024/04/19 06:03:35;;;;;;;0.40;0.40;;;16.50;57.60;;;;;;5417525;26;20224;-66
2024/04/19 06:06:00;;;;;;;0.47;0.40;;;16.70;57.40;;;;;;5417159;26;20217;-67
2024/04/19 06:08:26;;;;;;;0.40;0.40;;;17.00;57.00;;;;;;5416507;26;20678;-66
2024/04/19 06:10:51;;;;;;;0.60;0.52;;;17.10;56.80;;;;;;5416992;26;20713;-67
2024/04/19 06:13:17;;;;;;;0.30;0.30;;;17.30;56.50;;;;;;5417248;26;21162;-67
2024/04/19 06:15:43;;;;;;;0.50;0.40;;;17.40;56.20;;;;;;5416086;26;20286;-67
2024/04/19 06:18:09;;;;;;;0.60;0.60;;;17.40;56.10;;;;;;5417234;26;20279;-68
2024/04/19 06:20:36;;;;;;;0.63;0.63;;;17.40;56.10;;;;;;5417221;26;20220;-67
2024/04/19 06:23:02;;;;;;;0.45;0.45;;;17.40;56.20;;;;;;5415870;26;20221;-67
2024/04/19 06:25:28;;;;;;;0.38;0.38;;;17.40;56.20;;;;;;5417169;26;20612;-66
2024/04/19 06:27:53;;;;;;;0.88;0.63;;;17.40;56.20;;;;;;5416739;26;20788;-67
2024/04/19 06:30:19;;;;;;;0.32;0.32;;;17.50;56.20;;;;;;5416354;26;20329;-66
2024/04/19 06:32:44;;;;;;;0.45;0.40;;;17.40;56.20;;;;;;5416706;26;20255;-67
2024/04/19 06:35:13;;;;;;;1.05;0.50;;;17.30;56.30;;;;;;5417129;26;20217;-67
2024/04/19 06:37:38;;;;;;;0.88;0.68;;;17.40;56.30;;;;;;5416129;26;20216;-68
2024/04/19 06:40:04;;;;;;;0.40;0.40;;;17.40;56.20;;;;;;5416306;26;20220;-67
2024/04/19 06:42:30;;;;;;;0.40;0.40;;;17.40;56.30;;;;;;5416925;26;20272;-68
2024/04/19 06:44:55;;;;;;;0.40;0.40;;;17.40;56.30;;;;;;5415065;26;20346;-67
2024/04/19 06:47:21;;;;;;;0.55;0.35;;;17.40;56.30;;;;;;5414726;26;20267;-67
2024/04/19 06:49:46;;;;;;;0.52;0.45;;;17.40;56.30;;;;;;5413207;26;20221;-68
2024/04/19 06:52:12;;;;;;;0.45;0.30;;;17.30;56.40;;;;;;5413968;26;20604;-67
2024/04/19 06:54:37;;;;;;;0.30;0.30;;;17.30;56.60;;;;;;5415727;26;20295;-68
2024/04/19 06:57:03;;;;;;;0.40;0.30;;;17.40;56.60;;;;;;5415484;26;20266;-68
2024/04/19 06:59:29;;;;;;;0.90;0.40;;;17.40;56.60;;;;;;5415215;26;20220;-66
2024/04/19 07:01:54;;;;;;;0.52;0.40;;;17.40;56.50;;;;;;5416049;26;20228;-67
2024/04/19 07:04:20;;;;;;;0.65;0.50;;;17.50;56.50;;;;;;5415310;26;20225;-66
2024/04/19 07:06:45;;;;;;;0.80;0.40;;;17.50;56.50;;;;;;5416082;26;20321;-67
2024/04/19 07:09:13;;;;;;;0.50;0.50;;;17.50;56.50;;;;;;5416548;26;20328;-68
2024/04/19 07:11:39;;;;;;;0.50;0.50;;;17.60;56.50;;;;;;5415772;26;20288;-67
2024/04/19 07:14:04;;;;;;;0.98;0.50;;;17.60;56.60;;;;;;5416413;26;20216;-67
2024/04/19 07:16:33;;;;;;;0.85;0.40;;;17.60;56.60;;;;;;5416196;26;20688;-67
2024/04/19 07:18:59;;;;;;;1.95;0.77;;;17.60;56.70;;;;;;5415045;26;20275;-67
2024/04/19 07:21:24;;;;;;;1.80;0.60;;;17.60;56.80;;;;;;5416022;26;20685;-67
2024/04/19 07:23:51;;;;;;;0.85;0.55;;;17.60;56.80;;;;;;5415925;26;20667;-67
2024/04/19 07:26:17;;;;;;;1.95;0.70;;;17.60;56.90;;;;;;5414950;26;20667;-66
2024/04/19 07:28:42;;;;;;;2.45;0.80;;;17.60;56.80;;;;;;5415754;26;20286;-66
2024/04/19 07:31:08;;;;;;;4.78;1.13;;;17.70;56.80;;;;;;5415948;26;20217;-67
2024/04/19 07:33:33;;;;;;;1.25;0.68;;;17.70;56.80;;;;;;5415350;26;20270;-67
2024/04/19 07:35:59;;;;;;;1.52;0.65;;;17.60;56.90;;;;;;5415722;26;20220;-68
2024/04/19 07:38:24;;;;;;;1.00;0.63;;;17.60;56.90;;;;;;5416009;26;20415;-65
2024/04/19 07:40:50;;;;;;;0.98;0.50;;;17.50;57.10;;;;;;5414761;26;20221;-65
2024/04/19 07:43:15;;;;;;;2.47;0.80;;;17.40;57.20;;;;;;5415977;26;20224;-66
2024/04/19 07:45:42;;;;;;;1.58;0.80;;;17.40;57.50;;;;;;5416822;26;20286;-70
2024/04/19 07:48:08;;;;;;;2.97;0.75;;;17.30;57.60;;;;;;5415067;26;20748;-75
2024/04/19 07:50:34;;;;;;;4.78;1.13;;;17.20;57.90;;;;;;5415954;26;20220;-71
2024/04/19 07:52:59;;;;;;;3.45;1.27;;;17.20;58.00;;;;;;5415358;26;20583;-76
2024/04/19 07:55:25;;;;;;;2.40;0.88;;;17.10;58.20;;;;;;5414796;26;20777;-70
2024/04/19 07:57:50;;;;;;;5.28;0.90;;;17.10;58.30;;;;;;5415328;26;20254;-66
2024/04/19 08:00:17;;;;;;;1.85;0.93;;;17.10;58.50;;;;;;5415701;26;20259;-65
2024/04/19 08:02:43;;;;;;;2.00;0.95;;;17.00;59.20;;;;;;5414529;26;20746;-75
2024/04/19 08:05:09;;;;;;;2.90;0.88;;;17.00;58.80;;;;;;5415594;26;20263;-74
2024/04/19 08:07:35;;;;;;;3.25;0.90;;;17.00;59.10;;;;;;5414395;26;20229;-73
2024/04/19 08:10:01;;;;;;;2.08;0.82;;;17.00;58.90;;;;;;5415125;26;20547;-74
2024/04/19 08:12:27;;;;;;;3.85;0.98;;;16.90;59.00;;;;;;5415509;26;20259;-75
2024/04/19 08:14:52;;;;;;;4.10;1.02;;;17.00;59.00;;;;;;5415531;26;20221;-76
2024/04/19 08:17:18;;;;;;;3.72;0.95;;;17.00;59.00;;;;;;5418855;26;20616;-76
2024/04/19 08:19:43;;;;;;;5.32;0.73;;;17.10;59.00;;;;;;5418583;26;20259;-77
2024/04/19 08:22:10;;;;;;;4.55;1.08;;;17.10;58.90;;;;;;5418405;26;20229;-73
2024/04/19 08:24:36;;;;;;;2.58;0.90;;;17.10;58.80;;;;;;5418951;26;20232;-72
2024/04/19 08:27:02;;;;;;;2.33;0.90;;;17.10;58.90;;;;;;5418511;26;20259;-74
2024/04/19 08:29:27;;;;;;;2.03;0.98;;;17.10;58.90;;;;;;5417928;26;20682;-72
2024/04/19 08:31:53;;;;;;;2.10;1.08;;;17.10;59.00;;;;;;5418346;26;20221;-75
2024/04/19 08:34:18;;;;;;;2.20;0.73;;;17.10;59.10;;;;;;5418719;26;20267;-72
2024/04/19 08:36:44;;;;;;;1.85;1.02;;;17.10;59.20;;;;;;5417413;26;20258;-71
2024/04/19 08:39:09;;;;;;;2.58;0.77;;;17.10;59.20;;;;;;5418799;26;20262;-75
2024/04/19 08:41:35;;;;;;;2.70;1.00;;;17.10;59.20;;;;;;5418492;26;20228;-74
2024/04/19 08:44:01;;;;;;;2.05;0.93;;;17.10;59.20;;;;;;5417518;26;20634;-73
2024/04/19 08:46:32;;;;;;;2.28;0.98;;;17.10;59.20;;;;;;5418622;26;20263;-75
2024/04/19 08:49:02;;;;;;;1.48;1.02;;;17.10;59.20;;;;;;5418224;26;20707;-73
2024/04/19 08:51:28;;;;;;;1.55;1.02;;;17.10;59.20;;;;;;5417687;26;20217;-78
2024/04/19 08:53:54;;;;;;;3.95;1.10;;;17.10;59.20;;;;;;5386904;26;20228;-78
2024/04/19 08:56:19;;;;;;;2.40;0.85;;;17.10;59.20;;;;;;5358078;26;20612;-72
2024/04/19 08:58:45;;;;;;;2.13;0.90;;;17.10;59.10;;;;;;5356976;26;20710;-73
2024/04/19 09:01:10;;;;;;;2.75;1.10;;;17.10;59.10;;;;;;5418512;26;20765;-69
2024/04/19 09:03:36;;;;;;;2.63;0.88;;;17.20;59.20;;;;;;5418370;26;20259;-70
2024/04/19 09:06:02;;;;;;;1.48;0.98;;;17.20;59.10;;;;;;5385809;26;20276;-74
2024/04/19 09:08:27;;;;;;;1.48;1.13;;;17.20;59.10;;;;;;5387062;26;20221;-72
2024/04/19 09:10:53;;;;;;;1.30;0.77;;;17.20;59.20;;;;;;5385792;26;20601;-74
2024/04/19 09:13:18;;;;;;;1.10;1.00;;;17.20;59.20;;;;;;5418153;26;20686;-69
2024/04/19 09:15:46;;;;;;;1.70;0.70;;;17.10;59.20;;;;;;5417649;26;20224;-80
2024/04/19 09:18:11;;;;;;;3.25;0.85;;;17.10;59.30;;;;;;5417210;26;20337;-79
2024/04/19 09:20:44;;;;;;;3.60;0.90;;;17.00;59.40;;;;;;5387034;26;20240;-79
2024/04/19 09:23:10;;;;;;;1.63;0.80;;;16.90;59.50;;;;;;5418442;26;20739;-77
2024/04/19 09:25:38;;;;;;;2.58;0.90;;;16.90;59.50;;;;;;5417352;26;20251;-75
2024/04/19 09:28:05;;;;;;;3.70;0.93;;;16.90;59.50;;;;;;5417880;26;20228;-75
2024/04/19 09:30:31;;;;;;;2.05;0.85;;;16.90;59.50;;;;;;5417925;26;20225;-75
2024/04/19 09:32:56;;;;;;;3.42;0.77;;;16.90;59.60;;;;;;5385177;26;20702;-75
2024/04/19 09:35:25;;;;;;;3.05;0.60;;;16.80;59.50;;;;;;5417867;26;20261;-83
2024/04/19 09:37:50;;;;;;;1.25;0.80;;;16.80;59.50;;;;;;5417391;26;20630;-75
2024/04/19 09:40:16;;;;;;;3.00;1.30;;;16.80;59.40;;;;;;5356653;26;20228;-80
2024/04/19 09:42:42;;;;;;;1.15;0.50;;;16.90;59.40;;;;;;5416842;26;20229;-80
2024/04/19 09:45:08;;;;;;;2.90;1.05;;;16.90;59.30;;;;;;5357628;26;20228;-77
2024/04/19 09:47:34;;;;;;;1.58;0.80;;;16.90;59.20;;;;;;5416601;26;20224;-79
2024/04/19 09:50:00;;;;;;;3.50;0.82;;;16.90;59.20;;;;;;5356945;26;20228;-68
2024/04/19 09:52:25;;;;;;;1.63;0.80;;;16.90;59.10;;;;;;5357141;26;20573;-66
2024/04/19 09:55:10;;;;;;;1.25;0.98;;;17.00;59.10;;;;;;5385052;26;20552;-66
2024/04/19 09:57:35;;;;;;;2.65;0.73;;;17.10;59.20;;;;;;5417695;26;20216;-67
2024/04/19 10:00:02;;;;;;;2.03;1.05;;;17.10;59.20;;;;;;5416164;26;20259;-66
2024/04/19 10:02:29;;;;;;;2.08;1.00;;;17.10;59.20;;;;;;5417421;26;20220;-67
2024/04/19 10:04:55;;;;;;;2.90;1.10;;;17.10;59.20;;;;;;5385561;26;20236;-65
2024/04/19 10:07:20;;;;;;;2.03;0.93;;;17.10;59.30;;;;;;5416203;26;20213;-66
2024/04/19 10:09:46;;;;;;;3.17;0.90;;;17.00;59.20;;;;;;5416358;26;20328;-65
2024/04/19 10:12:11;;;;;;;0.95;0.70;;;17.10;59.30;;;;;;5356833;26;20225;-65
2024/04/19 10:14:37;;;;;;;2.42;1.00;;;17.20;59.10;;;;;;5416276;26;20285;-65
2024/04/19 10:17:03;;;;;;;2.65;1.15;;;17.30;58.90;;;;;;5416456;26;20284;-66
2024/04/19 10:19:33;;;;;;;1.85;0.98;;;17.30;58.90;;;;;;5417146;26;20305;-66
2024/04/19 10:21:59;;;;;;;5.20;1.02;;;17.30;59.00;;;;;;5385816;26;20735;-67
2024/04/19 10:24:25;;;;;;;3.00;0.88;;;17.20;59.10;;;;;;5417093;26;20225;-65
2024/04/19 10:26:53;;;;;;;1.20;1.00;;;17.20;59.20;;;;;;5416190;26;20224;-64
2024/04/19 10:29:19;;;;;;;2.20;1.10;;;17.10;59.30;;;;;;5415974;26;20293;-63
2024/04/19 10:31:48;;;;;;;3.22;1.10;;;17.10;59.50;;;;;;5416515;26;20220;-65
2024/04/19 10:34:17;;;;;;;3.40;0.98;;;17.00;59.50;;;;;;5416842;26;20673;-65
2024/04/19 10:36:43;;;;;;;2.92;1.00;;;17.00;59.60;;;;;;5415422;26;20224;-65
2024/04/19 10:39:08;;;;;;;3.47;1.08;;;17.00;59.70;;;;;;5416190;26;20259;-65
2024/04/19 10:41:34;;;;;;;1.55;1.05;;;17.00;59.60;;;;;;5416364;26;20224;-65
2024/04/19 10:44:03;;;;;;;3.42;1.10;;;17.00;59.70;;;;;;5415472;26;20596;-65
2024/04/19 10:46:29;;;;;;;3.65;0.88;;;17.00;59.60;;;;;;5385413;26;20225;-65
2024/04/19 10:48:54;;;;;;;1.92;1.00;;;17.00;59.70;;;;;;5385195;26;20236;-65
2024/04/19 10:51:20;;;;;;;3.58;0.90;;;16.90;59.70;;;;;;5384480;26;20228;-65
2024/04/19 10:53:45;;;;;;;2.85;1.00;;;16.90;59.80;;;;;;5356067;26;20328;-65
2024/04/19 10:56:11;;;;;;;1.85;0.80;;;16.90;59.90;;;;;;5416510;26;20232;-66
2024/04/19 10:58:36;;;;;;;1.88;0.93;;;16.90;59.90;;;;;;5415577;26;20259;-66
2024/04/19 11:01:02;;;;;;;2.05;1.00;;;16.90;59.70;;;;;;5416011;26;20259;-66
2024/04/19 11:03:28;;;;;;;1.10;0.77;;;17.00;59.80;;;;;;5415656;26;20275;-65
2024/04/19 11:05:53;;;;;;;2.35;1.00;;;17.00;59.70;;;;;;5414090;26;20266;-65
2024/04/19 11:08:19;;;;;;;4.95;1.00;;;16.90;59.80;;;;;;5384883;26;20228;-65
2024/04/19 11:10:45;;;;;;;2.08;1.10;;;16.90;59.80;;;;;;5414993;26;20737;-65
2024/04/19 11:13:11;;;;;;;1.85;1.00;;;16.80;59.80;;;;;;5416272;26;20325;-65
2024/04/19 11:15:36;;;;;;;2.03;1.00;;;16.80;60.00;;;;;;5416287;26;20220;-65
2024/04/19 11:18:03;;;;;;;2.20;0.77;;;16.70;60.00;;;;;;5418568;26;20237;-66
2024/04/19 11:20:28;;;;;;;2.60;0.82;;;16.70;60.00;;;;;;5416089;26;20302;-65
2024/04/19 11:22:56;;;;;;;1.95;0.70;;;16.70;60.00;;;;;;5384538;26;20233;-65
2024/04/19 11:25:22;;;;;;;2.10;0.98;;;16.60;59.90;;;;;;5415309;26;20251;-65
2024/04/19 11:27:49;;;;;;;4.20;1.02;;;16.70;59.90;;;;;;5415642;26;20221;-64
2024/04/19 11:30:15;;;;;;;2.25;0.80;;;16.70;59.90;;;;;;5416150;26;20216;-65
2024/04/19 11:32:40;;;;;;;1.92;1.20;;;16.70;59.80;;;;;;5415038;26;20305;-65
2024/04/19 11:35:08;;;;;;;2.20;1.10;;;16.80;59.80;;;;;;5415945;26;20272;-65
2024/04/19 11:37:34;;;;;;;1.05;0.70;;;16.80;59.60;;;;;;5416016;26;20229;-65
2024/04/19 11:40:03;;;;;;;0.90;0.75;;;16.90;59.40;;;;;;5414482;26;20220;-65
2024/04/19 11:42:28;;;;;;;2.45;0.70;;;17.20;59.50;;;;;;5415889;26;20251;-66
2024/04/19 11:44:54;;;;;;;1.52;0.70;;;17.00;59.40;;;;;;5415297;26;20224;-66
2024/04/19 11:47:19;;;;;;;1.77;0.80;;;16.90;59.30;;;;;;5415046;26;20224;-66
2024/04/19 11:49:45;;;;;;;1.10;0.77;;;17.00;59.30;;;;;;5382454;26;20332;-66
2024/04/19 11:52:11;;;;;;;0.70;0.70;;;17.00;59.30;;;;;;5415799;26;20224;-66
2024/04/19 11:54:37;;;;;;;1.27;0.75;;;17.00;59.30;;;;;;5414787;26;20259;-66
2024/04/19 11:57:02;;;;;;;2.10;0.85;;;17.10;59.30;;;;;;5415117;26;20224;-66
2024/04/19 11:59:28;;;;;;;1.33;0.80;;;17.10;59.20;;;;;;5384560;26;20225;-66
2024/04/19 12:01:54;;;;;;;1.10;0.73;;;17.10;59.20;;;;;;5383134;26;20357;-66
2024/04/19 12:04:19;;;;;;;1.13;0.60;;;17.00;59.10;;;;;;5415543;26;20236;-65
2024/04/19 12:06:46;;;;;;;1.10;0.70;;;17.00;59.20;;;;;;5414156;26;20224;-65
2024/04/19 12:09:11;;;;;;;0.95;0.60;;;16.90;59.30;;;;;;5415401;26;20232;-65
2024/04/19 12:11:37;;;;;;;1.15;0.70;;;16.90;59.40;;;;;;5415330;26;20649;-65
2024/04/19 12:14:04;;;;;;;1.35;0.95;;;16.90;59.40;;;;;;5414023;26;20704;-65
2024/04/19 12:16:29;;;;;;;1.55;0.70;;;17.00;59.40;;;;;;5415267;26;20614;-65
2024/04/19 12:18:55;;;;;;;1.17;0.88;;;17.00;59.30;;;;;;5414724;26;20801;-66
2024/04/19 12:21:20;;;;;;;0.80;0.80;;;16.90;59.30;;;;;;5414289;26;20220;-65
2024/04/19 12:23:46;;;;;;;1.30;0.80;;;16.90;60.10;;;;;;5414775;26;20263;-65
2024/04/19 12:26:11;;;;;;;0.50;0.50;;;16.90;59.50;;;;;;5415022;26;20258;-65
2024/04/19 12:28:37;;;;;;;1.30;0.65;;;16.80;59.50;;;;;;5414314;26;20657;-64
2024/04/19 12:31:03;;;;;;;1.17;0.60;;;16.80;59.50;;;;;;5414593;26;20225;-65
2024/04/19 12:33:28;;;;;;;2.88;0.68;;;16.70;59.60;;;;;;5383827;26;20351;-65
2024/04/19 12:35:54;;;;;;;1.75;0.85;;;16.80;59.60;;;;;;5413784;26;20321;-65
2024/04/19 12:38:21;;;;;;;1.13;0.60;;;16.80;59.50;;;;;;5414875;26;20549;-66
2024/04/19 12:40:47;;;;;;;1.08;0.70;;;16.80;59.40;;;;;;5414392;26;20229;-65
2024/04/19 12:43:12;;;;;;;1.83;0.90;;;16.90;59.50;;;;;;5414010;26;20651;-66
2024/04/19 12:45:38;;;;;;;1.80;0.80;;;16.80;59.50;;;;;;5383582;26;20796;-65